Time;durP1;ratioP1;P1;durP2;ratioP2;P2;SDS_P1;SDS_P2;PMS_P1;PMS_P2;Temp;Humidity;BMP_temperature;BMP_pressure;BME280_temperature;BME280_humidity;BME280_pressure;Samples;Min_cycle;Max_cycle;Signal;HPM_P1;HPM_P2
2022/06/15 04:34:00;;;;;;;7.30;6.60;;;14.50;99.90;;;;;;6155500;22;20576;-78
2022/06/15 04:36:30;;;;;;;7.50;6.87;;;14.20;99.90;;;;;;6119225;23;20262;-78
2022/06/15 04:38:57;;;;;;;7.23;6.43;;;14.40;99.90;;;;;;6124862;23;20451;-78
2022/06/15 04:41:24;;;;;;;6.27;5.77;;;14.60;99.90;;;;;;6121735;23;20515;-78
2022/06/15 04:43:51;;;;;;;6.93;6.33;;;14.90;99.90;;;;;;6120554;23;20898;-78
2022/06/15 04:46:18;;;;;;;6.87;6.17;;;15.20;99.90;;;;;;6128530;23;20525;-78
2022/06/15 04:48:45;;;;;;;6.90;6.30;;;15.50;99.90;;;;;;6127227;23;20434;-78
2022/06/15 04:51:17;;;;;;;6.97;6.37;;;15.70;99.90;;;;;;6130810;23;20866;-78
2022/06/15 04:53:44;;;;;;;7.60;6.90;;;15.90;99.90;;;;;;6114743;23;20482;-78
2022/06/15 04:56:12;;;;;;;8.70;7.80;;;16.20;99.90;;;;;;6104669;23;20445;-78
2022/06/15 04:58:40;;;;;;;8.67;7.87;;;16.40;99.90;;;;;;6106600;23;20451;-78
2022/06/15 05:01:08;;;;;;;8.30;7.50;;;16.50;99.90;;;;;;6105468;23;20433;-78
2022/06/15 05:03:36;;;;;;;8.53;7.73;;;16.70;99.90;;;;;;6112864;23;20547;-78
2022/06/15 05:06:09;;;;;;;11.50;7.70;;;16.70;99.90;;;;;;6110265;23;20525;-78
2022/06/15 05:08:38;;;;;;;8.30;7.50;;;16.80;99.90;;;;;;6111369;23;20437;-79
2022/06/15 05:11:05;;;;;;;7.87;7.27;;;16.90;99.90;;;;;;6116125;23;20520;-78
2022/06/15 05:13:33;;;;;;;8.43;7.63;;;17.00;99.90;;;;;;6119743;23;20473;-78
2022/06/15 05:16:00;;;;;;;7.97;7.03;;;17.00;99.90;;;;;;6101629;23;20443;-77
2022/06/15 05:18:27;;;;;;;7.47;6.83;;;17.00;99.90;;;;;;6122525;23;20974;-79
2022/06/15 05:20:54;;;;;;;8.27;7.40;;;17.10;99.90;;;;;;6128677;23;20467;-79
2022/06/15 05:23:21;;;;;;;9.37;7.23;;;17.20;99.90;;;;;;6115845;23;20547;-80
2022/06/15 05:25:50;;;;;;;8.30;7.43;;;17.20;99.90;;;;;;6127493;23;20902;-75
2022/06/15 05:28:17;;;;;;;8.47;7.70;;;17.30;99.90;;;;;;6123089;23;20443;-76
2022/06/15 05:30:44;;;;;;;7.47;6.87;;;17.40;99.90;;;;;;6123736;23;20441;-91
2022/06/15 05:33:12;;;;;;;12.20;7.50;;;17.50;99.90;;;;;;6120748;23;20464;-89
2022/06/15 05:35:39;;;;;;;6.70;6.20;;;17.50;99.90;;;;;;6111710;23;20440;-77
2022/06/15 05:38:06;;;;;;;7.40;6.47;;;17.50;99.90;;;;;;6122377;23;20429;-77
2022/06/15 05:40:33;;;;;;;6.60;6.00;;;17.70;99.90;;;;;;6124522;23;20432;-78
2022/06/15 05:43:02;;;;;;;7.17;6.57;;;17.60;99.90;;;;;;6134328;23;20500;-76
2022/06/15 05:45:29;;;;;;;6.63;6.00;;;17.60;99.90;;;;;;6122432;23;20467;-78
2022/06/15 05:47:56;;;;;;;7.43;6.83;;;17.50;99.90;;;;;;6133637;23;20443;-77
2022/06/15 05:50:23;;;;;;;8.17;6.40;;;17.50;99.90;;;;;;6119683;23;20431;-78
2022/06/15 05:52:50;;;;;;;7.87;7.07;;;17.50;99.90;;;;;;6105832;23;20485;-78
2022/06/15 05:55:17;;;;;;;6.90;6.30;;;17.50;99.90;;;;;;6115686;23;20443;-78
2022/06/15 05:57:44;;;;;;;6.80;6.17;;;17.60;99.90;;;;;;6097886;23;21237;-78
2022/06/15 06:00:14;;;;;;;7.50;6.80;;;17.60;99.90;;;;;;6093911;23;20800;-78
2022/06/15 06:02:42;;;;;;;7.40;6.40;;;17.80;99.90;;;;;;6105290;23;20519;-78
2022/06/15 06:05:10;;;;;;;7.10;6.47;;;17.80;99.90;;;;;;6094064;23;20516;-77
2022/06/15 06:07:37;;;;;;;7.17;6.57;;;17.80;99.90;;;;;;6109329;23;20837;-78
2022/06/15 06:10:05;;;;;;;6.97;6.30;;;17.90;99.90;;;;;;6099816;23;20980;-77
2022/06/15 06:12:32;;;;;;;6.53;6.00;;;18.10;99.90;;;;;;6100660;23;20799;-77
2022/06/15 06:14:59;;;;;;;6.47;5.90;;;18.00;99.90;;;;;;6092589;23;20477;-78
2022/06/15 06:17:28;;;;;;;6.83;6.13;;;18.10;99.90;;;;;;6101807;23;20435;-78
2022/06/15 06:19:55;;;;;;;6.03;4.77;;;18.20;99.90;;;;;;6102451;23;20437;-77
2022/06/15 06:22:22;;;;;;;8.10;5.50;;;18.40;99.90;;;;;;6093110;23;20438;-78
2022/06/15 06:24:49;;;;;;;6.13;5.30;;;18.50;99.90;;;;;;6087514;23;20439;-78
2022/06/15 06:27:17;;;;;;;5.63;5.13;;;18.60;99.90;;;;;;6094529;23;20441;-78
2022/06/15 06:29:45;;;;;;;5.80;5.17;;;18.80;99.90;;;;;;6089360;23;20441;-77
2022/06/15 06:32:14;;;;;;;5.57;5.10;;;19.00;99.90;;;;;;6105593;23;20449;-78
2022/06/15 06:34:42;;;;;;;5.30;4.80;;;19.10;99.90;;;;;;6095914;23;20785;-77
2022/06/15 06:37:13;;;;;;;5.40;4.93;;;19.20;99.90;;;;;;6090216;23;20450;-77
2022/06/15 06:39:41;;;;;;;6.30;5.10;;;19.30;99.90;;;;;;6112291;23;20479;-78
2022/06/15 06:42:09;;;;;;;4.60;4.20;;;19.50;99.90;;;;;;6109643;23;21183;-77
2022/06/15 06:44:38;;;;;;;5.73;4.27;;;19.60;99.90;;;;;;6107569;23;20445;-78
2022/06/15 06:47:07;;;;;;;5.13;4.63;;;19.70;99.90;;;;;;6099102;23;20827;-78
2022/06/15 06:49:36;;;;;;;4.47;4.07;;;19.90;99.90;;;;;;6113647;23;20443;-81
2022/06/15 06:52:05;;;;;;;4.90;4.40;;;20.00;99.90;;;;;;6111068;23;20458;-81
2022/06/15 06:54:32;;;;;;;5.00;4.07;;;20.00;99.90;;;;;;6106660;23;20461;-83
2022/06/15 06:56:59;;;;;;;4.93;4.43;;;20.20;99.90;;;;;;6113220;23;20500;-82
2022/06/15 06:59:26;;;;;;;5.10;4.27;;;20.30;99.90;;;;;;6112172;23;20442;-82
2022/06/15 07:01:54;;;;;;;4.60;4.20;;;20.30;99.90;;;;;;6115796;23;20457;-82
2022/06/15 07:04:21;;;;;;;7.20;4.60;;;20.50;99.90;;;;;;6125997;23;20466;-81
2022/06/15 07:06:48;;;;;;;4.70;4.30;;;20.60;99.90;;;;;;6122840;23;20444;-82
2022/06/15 07:09:16;;;;;;;5.03;4.60;;;20.70;99.90;;;;;;6105537;23;20430;-81
2022/06/15 07:11:45;;;;;;;4.97;4.50;;;20.80;99.90;;;;;;6106250;23;20434;-81
2022/06/15 07:14:13;;;;;;;5.10;4.60;;;20.90;99.90;;;;;;6111776;23;20557;-81
2022/06/15 07:16:40;;;;;;;5.53;4.00;;;21.00;99.90;;;;;;6114873;23;20427;-82
2022/06/15 07:19:08;;;;;;;5.40;4.20;;;21.10;99.90;;;;;;6112819;23;20820;-81
2022/06/15 07:21:35;;;;;;;5.27;4.13;;;21.30;99.90;;;;;;6117313;23;20447;-81
2022/06/15 07:24:02;;;;;;;8.93;4.53;;;21.40;99.90;;;;;;6110269;23;20469;-80
2022/06/15 07:26:32;;;;;;;4.23;3.80;;;21.40;99.90;;;;;;6109808;23;20491;-81
2022/06/15 07:29:00;;;;;;;4.63;4.23;;;21.50;99.90;;;;;;6109984;23;20818;-81
2022/06/15 07:31:29;;;;;;;6.13;4.00;;;21.50;99.90;;;;;;6102331;23;20857;-81
2022/06/15 07:33:57;;;;;;;4.63;4.23;;;21.60;99.90;;;;;;6101655;23;20545;-81
2022/06/15 07:36:25;;;;;;;5.73;3.80;;;21.70;99.90;;;;;;6097585;23;20438;-81
2022/06/15 07:38:54;;;;;;;4.47;4.07;;;21.90;99.90;;;;;;6091627;23;20626;-81
2022/06/15 07:41:23;;;;;;;4.83;4.33;;;22.10;99.90;;;;;;6102617;23;20789;-81
2022/06/15 07:43:52;;;;;;;5.30;3.90;;;22.40;99.90;;;;;;6120523;23;20481;-81
2022/06/15 07:46:20;;;;;;;4.50;4.10;;;22.80;99.90;;;;;;6126204;23;20436;-81
2022/06/15 07:51:34;;;;;;;5.30;4.00;;;24.00;99.90;;;;;;6115935;23;21006;-81
2022/06/15 07:54:02;;;;;;;4.50;4.00;;;24.80;98.80;;;;;;6120584;23;20477;-81
2022/06/15 07:56:30;;;;;;;5.17;4.40;;;25.50;97.20;;;;;;6112642;23;20446;-81
2022/06/15 07:58:59;;;;;;;7.80;3.80;;;26.10;96.40;;;;;;6119781;23;20449;-81
2022/06/15 08:01:26;;;;;;;5.60;3.70;;;26.70;95.40;;;;;;6123759;23;20445;-81
2022/06/15 08:03:54;;;;;;;4.10;3.63;;;27.30;94.10;;;;;;6124188;23;20545;-81
2022/06/15 08:06:22;;;;;;;4.60;3.80;;;27.90;91.90;;;;;;6116193;23;20437;-81
2022/06/15 08:08:49;;;;;;;4.10;3.73;;;28.60;90.70;;;;;;6117593;23;20443;-81
2022/06/15 08:11:17;;;;;;;3.83;3.40;;;29.20;86.50;;;;;;6110138;23;20932;-81
2022/06/15 08:13:45;;;;;;;5.10;3.73;;;29.60;84.00;;;;;;6131749;23;20477;-81
2022/06/15 08:16:14;;;;;;;4.10;3.70;;;29.80;81.80;;;;;;6110371;23;20439;-81
2022/06/15 08:18:44;;;;;;;5.50;3.90;;;30.10;78.20;;;;;;6130261;23;20440;-82
2022/06/15 08:21:17;;;;;;;4.73;4.20;;;30.20;77.90;;;;;;6111868;23;20439;-81
2022/06/15 08:23:47;;;;;;;3.53;3.23;;;30.30;77.20;;;;;;6098055;23;20470;-81
2022/06/15 08:26:19;;;;;;;5.07;3.50;;;30.40;75.90;;;;;;6097976;23;20449;-82
2022/06/15 08:28:50;;;;;;;6.17;4.03;;;30.60;74.80;;;;;;6110306;23;20781;-82
2022/06/15 08:31:20;;;;;;;4.83;4.07;;;30.80;72.00;;;;;;6098769;23;20448;-82
2022/06/15 08:33:47;;;;;;;3.60;3.30;;;30.40;73.30;;;;;;6088120;23;20474;-82
2022/06/15 08:36:15;;;;;;;4.60;3.30;;;30.40;72.90;;;;;;6098052;23;20448;-83
2022/06/15 08:38:44;;;;;;;4.50;3.50;;;30.50;73.20;;;;;;6101527;23;20472;-82
2022/06/15 08:41:19;;;;;;;5.10;3.40;;;30.60;71.50;;;;;;6090357;23;20529;-82
2022/06/15 08:44:03;;;;;;;4.60;3.83;;;31.10;70.60;;;;;;6110634;23;20970;-82
2022/06/15 08:46:44;;;;;;;5.03;3.40;;;31.70;69.50;;;;;;6110646;23;20460;-82
2022/06/15 08:49:25;;;;;;;4.03;3.23;;;31.60;69.00;;;;;;6109025;23;20441;-81
2022/06/15 08:51:58;;;;;;;3.93;3.53;;;31.30;68.40;;;;;;6116266;23;20469;-81
2022/06/15 08:54:29;;;;;;;4.37;3.93;;;31.30;67.20;;;;;;6106031;23;20842;-82
2022/06/15 08:57:03;;;;;;;3.50;3.20;;;31.40;66.80;;;;;;6096072;23;20932;-81
2022/06/15 08:59:36;;;;;;;3.90;3.60;;;31.70;65.90;;;;;;6101207;23;20429;-81
2022/06/15 09:02:12;;;;;;;3.30;3.00;;;32.20;63.40;;;;;;6103887;23;20457;-81
2022/06/15 09:04:50;;;;;;;3.30;3.00;;;32.80;62.30;;;;;;6102001;23;20518;-81
2022/06/15 09:07:32;;;;;;;6.00;3.43;;;33.30;62.20;;;;;;6100357;23;20437;-81
2022/06/15 09:10:22;;;;;;;6.07;3.50;;;33.70;59.50;;;;;;6102825;23;20442;-81
2022/06/15 09:13:03;;;;;;;3.50;3.20;;;33.70;58.70;;;;;;6099732;23;20992;-81
2022/06/15 09:15:43;;;;;;;3.93;3.47;;;34.40;59.10;;;;;;6101356;23;20442;-81
2022/06/15 09:18:18;;;;;;;3.80;3.40;;;35.10;56.70;;;;;;6105856;23;20499;-81
2022/06/15 09:20:49;;;;;;;3.47;3.17;;;35.50;54.90;;;;;;6109662;23;20455;-81
2022/06/15 09:23:22;;;;;;;4.50;3.07;;;35.80;53.90;;;;;;6099984;23;20877;-81
2022/06/15 09:25:53;;;;;;;4.97;2.80;;;35.90;54.20;;;;;;6104335;23;20998;-81
2022/06/15 09:28:26;;;;;;;3.30;3.00;;;36.40;53.00;;;;;;6106331;23;20449;-82
2022/06/15 09:30:55;;;;;;;4.13;3.00;;;36.70;51.70;;;;;;6109773;23;20438;-81
2022/06/15 09:33:29;;;;;;;3.03;2.70;;;36.70;51.30;;;;;;6113643;23;20555;-81
2022/06/15 09:36:02;;;;;;;3.50;3.20;;;36.70;51.30;;;;;;6102309;23;20959;-81
2022/06/15 09:38:31;;;;;;;3.53;3.17;;;36.80;51.60;;;;;;6112380;23;20487;-81
2022/06/15 09:41:04;;;;;;;4.03;3.10;;;36.70;51.60;;;;;;6108373;23;20446;-81
2022/06/15 09:43:42;;;;;;;4.53;4.13;;;36.70;51.40;;;;;;6107661;23;20460;-81
2022/06/15 09:46:14;;;;;;;4.37;3.50;;;36.40;51.50;;;;;;6115788;23;20441;-82
2022/06/15 09:48:57;;;;;;;3.57;3.27;;;35.90;51.80;;;;;;6100258;23;20462;-81
2022/06/15 09:51:31;;;;;;;3.97;3.50;;;35.40;51.70;;;;;;6099976;23;20431;-81
2022/06/15 09:54:10;;;;;;;3.60;3.23;;;35.10;52.30;;;;;;6113206;23;20465;-81
2022/06/15 09:56:37;;;;;;;3.47;3.17;;;35.20;52.40;;;;;;6092057;23;20446;-82
2022/06/15 09:59:07;;;;;;;3.73;3.10;;;35.10;53.50;;;;;;6116893;23;20444;-81
2022/06/15 10:01:39;;;;;;;3.43;2.93;;;35.00;52.00;;;;;;6094817;23;20470;-82
2022/06/15 10:04:16;;;;;;;3.20;3.00;;;35.10;52.70;;;;;;6092783;23;20524;-81
2022/06/15 10:06:46;;;;;;;3.60;3.30;;;34.90;49.90;;;;;;6095166;23;20855;-81
2022/06/15 10:09:17;;;;;;;3.57;3.03;;;34.00;50.80;;;;;;6112157;23;20907;-81
2022/06/15 10:11:47;;;;;;;3.60;3.30;;;33.90;51.20;;;;;;6092112;23;20451;-81
2022/06/15 10:14:24;;;;;;;3.30;3.00;;;33.90;51.20;;;;;;6100738;23;20527;-81
2022/06/15 10:16:56;;;;;;;3.67;3.30;;;34.20;50.90;;;;;;6111230;23;20477;-81
2022/06/15 10:19:26;;;;;;;3.30;3.10;;;34.50;51.50;;;;;;6091378;23;20446;-81
2022/06/15 10:21:59;;;;;;;3.67;3.37;;;34.60;50.40;;;;;;6092532;23;20493;-80
2022/06/15 10:24:29;;;;;;;3.93;3.40;;;34.80;51.20;;;;;;6094163;23;21182;-80
2022/06/15 15:37:38;;;;;;;3.10;2.80;;;46.00;30.40;;;;;;6101691;23;22136;-78
2022/06/15 15:40:11;;;;;;;4.97;2.50;;;45.60;31.20;;;;;;6071299;23;20854;-78
2022/06/15 15:42:39;;;;;;;3.63;3.33;;;45.10;31.50;;;;;;6066217;23;20465;-79
2022/06/15 15:45:08;;;;;;;3.80;2.80;;;43.60;31.90;;;;;;6065456;23;20464;-79
2022/06/15 15:47:36;;;;;;;3.70;3.40;;;42.80;32.80;;;;;;6062151;23;20430;-78
2022/06/15 15:50:04;;;;;;;3.30;3.00;;;42.10;32.80;;;;;;6058133;23;20454;-77
2022/06/15 15:52:33;;;;;;;3.77;2.90;;;41.00;32.60;;;;;;6056541;23;20505;-78
2022/06/15 15:55:00;;;;;;;3.13;2.93;;;40.10;33.50;;;;;;6066905;23;20751;-78
2022/06/15 15:57:28;;;;;;;3.10;2.90;;;39.20;34.70;;;;;;6067372;23;20488;-85
2022/06/15 15:59:57;;;;;;;3.10;2.90;;;38.20;35.00;;;;;;6059405;23;20466;-85
2022/06/15 16:02:26;;;;;;;3.30;3.00;;;37.20;36.10;;;;;;6066773;23;20431;-76
2022/06/15 16:04:54;;;;;;;3.40;3.20;;;36.40;37.60;;;;;;6075994;23;20992;-77
2022/06/15 16:07:24;;;;;;;4.07;3.27;;;35.60;37.10;;;;;;6071862;23;20943;-76
2022/06/15 16:09:56;;;;;;;8.10;3.50;;;34.50;38.10;;;;;;6069865;23;20528;-76
2022/06/15 16:12:24;;;;;;;4.10;3.00;;;33.90;39.30;;;;;;6064439;23;21039;-76
2022/06/15 16:14:52;;;;;;;3.30;3.00;;;33.50;40.60;;;;;;6072681;23;20949;-76
2022/06/15 16:17:21;;;;;;;4.97;3.30;;;33.10;40.50;;;;;;6064788;23;20472;-76
2022/06/15 16:19:50;;;;;;;6.27;3.27;;;32.80;41.30;;;;;;6061014;23;20802;-76
2022/06/15 16:22:17;;;;;;;4.00;3.30;;;32.60;41.50;;;;;;6066435;23;20464;-75
2022/06/15 16:24:46;;;;;;;3.63;3.43;;;32.30;42.10;;;;;;6060336;23;20430;-77
2022/06/15 16:27:15;;;;;;;3.10;2.80;;;32.20;41.30;;;;;;6078708;23;20462;-77
2022/06/15 16:29:42;;;;;;;3.30;3.07;;;32.10;41.00;;;;;;6068262;23;20443;-77
2022/06/15 16:32:11;;;;;;;2.97;2.70;;;31.90;41.20;;;;;;6069135;23;20449;-77
2022/06/15 16:34:39;;;;;;;3.20;3.00;;;31.70;41.10;;;;;;6061764;23;20453;-76
2022/06/15 16:37:07;;;;;;;4.77;3.40;;;31.60;41.10;;;;;;6056341;23;20475;-77
2022/06/15 16:39:34;;;;;;;3.20;2.90;;;31.40;40.50;;;;;;6055807;23;20438;-76
2022/06/15 16:42:01;;;;;;;3.10;2.90;;;31.20;41.60;;;;;;6063367;23;20450;-76
2022/06/15 16:44:30;;;;;;;3.87;2.93;;;31.10;41.90;;;;;;6051767;23;21007;-77
2022/06/15 16:46:57;;;;;;;3.73;2.80;;;31.10;42.00;;;;;;6060118;23;20467;-76
2022/06/15 16:49:25;;;;;;;2.97;2.77;;;31.00;41.30;;;;;;6051683;23;20442;-76
2022/06/15 16:51:52;;;;;;;3.70;3.40;;;31.00;41.70;;;;;;6048904;23;20437;-76
2022/06/15 16:54:19;;;;;;;4.40;4.00;;;30.90;41.30;;;;;;6053223;23;20426;-76
2022/06/15 16:56:49;;;;;;;4.63;3.23;;;30.90;41.60;;;;;;6058335;23;21004;-76
2022/06/15 16:59:19;;;;;;;4.77;3.20;;;30.90;41.00;;;;;;6054253;23;20443;-76
2022/06/15 17:01:48;;;;;;;3.10;2.90;;;30.90;41.30;;;;;;6060712;23;20466;-77
2022/06/15 17:04:15;;;;;;;7.50;6.80;;;30.90;41.30;;;;;;6055415;23;20861;-76
2022/06/15 17:06:43;;;;;;;7.17;5.33;;;30.90;41.20;;;;;;6055609;23;20940;-76
2022/06/15 17:09:12;;;;;;;4.40;3.00;;;30.90;40.90;;;;;;6054653;23;20450;-76
2022/06/15 17:11:42;;;;;;;3.10;2.67;;;30.90;40.80;;;;;;6056994;23;20471;-76
2022/06/15 17:14:09;;;;;;;2.97;2.67;;;30.70;40.70;;;;;;6048911;23;20435;-76
2022/06/15 17:16:36;;;;;;;3.07;2.87;;;30.70;41.30;;;;;;6062637;23;20458;-76
2022/06/15 17:19:06;;;;;;;5.17;2.90;;;30.50;40.40;;;;;;6060858;23;20613;-77
2022/06/15 17:21:33;;;;;;;2.60;2.40;;;30.40;40.70;;;;;;6058981;23;20494;-76
2022/06/15 17:24:03;;;;;;;3.43;2.77;;;30.40;41.70;;;;;;6064517;23;20473;-76
2022/06/15 17:26:34;;;;;;;4.00;3.40;;;30.30;40.90;;;;;;6067962;23;20541;-77
2022/06/15 17:29:03;;;;;;;3.47;3.17;;;30.20;40.30;;;;;;6062065;23;20431;-77
2022/06/15 17:31:32;;;;;;;4.27;3.13;;;30.30;41.20;;;;;;6068202;23;20459;-76
2022/06/15 17:33:59;;;;;;;4.20;3.80;;;30.30;41.60;;;;;;6058262;23;20540;-76
2022/06/15 17:36:28;;;;;;;4.23;2.80;;;30.30;41.40;;;;;;6060170;23;20836;-77
2022/06/15 17:38:55;;;;;;;3.00;2.80;;;30.30;41.50;;;;;;6060642;23;20450;-77
2022/06/15 17:41:27;;;;;;;2.80;2.60;;;30.30;42.50;;;;;;6061572;23;20458;-76
2022/06/15 17:43:55;;;;;;;3.57;3.27;;;30.30;42.30;;;;;;6071906;23;20430;-74
2022/06/15 17:46:24;;;;;;;3.47;3.03;;;30.10;42.40;;;;;;6060128;23;20780;-76
2022/06/15 17:48:52;;;;;;;3.80;3.60;;;30.00;42.20;;;;;;6065631;23;20438;-76
2022/06/15 17:51:19;;;;;;;3.33;3.13;;;29.90;42.40;;;;;;6050837;23;20824;-76
2022/06/15 17:53:47;;;;;;;3.90;3.60;;;29.70;42.50;;;;;;6058338;23;21710;-77
2022/06/15 17:56:15;;;;;;;4.70;3.43;;;29.60;42.50;;;;;;6054446;23;20463;-81
2022/06/15 17:58:43;;;;;;;4.50;3.70;;;29.50;42.60;;;;;;6046310;23;20435;-78
2022/06/15 18:01:11;;;;;;;3.30;3.00;;;29.40;42.50;;;;;;6045288;23;20555;-77
2022/06/15 18:03:41;;;;;;;3.70;3.50;;;29.30;42.30;;;;;;6052142;23;20486;-77
2022/06/15 18:06:08;;;;;;;4.10;3.80;;;29.20;42.10;;;;;;6050060;23;20447;-77
2022/06/15 18:08:36;;;;;;;3.67;3.07;;;29.10;42.40;;;;;;6056421;23;20748;-77
2022/06/15 18:11:09;;;;;;;3.63;2.87;;;29.00;43.20;;;;;;6058998;23;20479;-77
2022/06/15 18:13:41;;;;;;;4.17;3.10;;;29.00;43.40;;;;;;6055680;23;20518;-78
2022/06/15 18:16:12;;;;;;;2.97;2.77;;;28.90;43.70;;;;;;6058087;23;20445;-77
2022/06/15 18:18:41;;;;;;;6.97;3.70;;;28.90;43.80;;;;;;6056169;23;20435;-77
2022/06/15 18:21:08;;;;;;;3.13;2.83;;;28.90;44.00;;;;;;6057864;23;20501;-78
2022/06/15 18:23:36;;;;;;;3.70;3.20;;;28.80;43.80;;;;;;6056235;23;21467;-78
2022/06/15 18:26:04;;;;;;;2.77;2.57;;;28.80;44.10;;;;;;6056732;23;20493;-77
2022/06/15 18:28:32;;;;;;;3.20;2.80;;;28.70;44.00;;;;;;6051577;23;20499;-77
2022/06/15 18:31:01;;;;;;;3.67;3.30;;;28.70;44.00;;;;;;6060892;23;20490;-77
2022/06/15 18:33:33;;;;;;;3.20;2.90;;;28.60;44.20;;;;;;6057786;23;21067;-75
2022/06/15 18:36:01;;;;;;;3.30;3.10;;;28.60;43.90;;;;;;6053850;23;20456;-75
2022/06/15 18:38:29;;;;;;;3.20;2.90;;;28.40;43.40;;;;;;6052134;23;20439;-79
2022/06/15 18:40:56;;;;;;;3.40;3.10;;;28.40;43.40;;;;;;6055557;23;20462;-74
2022/06/15 18:48:53;;;;;;;3.60;3.30;;;28.30;45.00;;;;;;6059587;23;20439;-74
2022/06/15 18:51:23;;;;;;;10.50;9.70;;;28.20;45.40;;;;;;6056496;23;20577;-75
2022/06/15 18:53:50;;;;;;;33.07;30.57;;;28.10;45.60;;;;;;6055052;23;20558;-74
2022/06/15 18:56:17;;;;;;;31.27;28.77;;;28.10;45.90;;;;;;6052427;23;20558;-74
2022/06/15 18:58:48;;;;;;;26.27;24.27;;;28.00;46.00;;;;;;6046011;23;20668;-75
2022/06/15 19:01:15;;;;;;;13.33;12.13;;;28.00;46.40;;;;;;6051129;23;20838;-74
2022/06/15 19:03:42;;;;;;;43.57;40.27;;;27.90;46.80;;;;;;6055968;23;20953;-75
2022/06/15 19:06:09;;;;;;;17.87;16.43;;;27.80;46.80;;;;;;6055271;23;21000;-73
2022/06/15 19:08:38;;;;;;;13.70;12.60;;;27.80;46.80;;;;;;6054488;23;20436;-75
2022/06/15 19:11:08;;;;;;;6.70;6.10;;;27.70;46.90;;;;;;6042896;23;20474;-73
2022/06/15 19:13:35;;;;;;;4.03;3.73;;;27.70;47.50;;;;;;6051083;23;20650;-73
2022/06/15 19:16:05;;;;;;;9.23;8.33;;;27.60;47.40;;;;;;6057104;23;20514;-74
2022/06/15 19:18:32;;;;;;;6.57;5.87;;;27.60;47.80;;;;;;6049992;23;20483;-75
2022/06/15 19:21:02;;;;;;;5.67;5.27;;;27.50;48.80;;;;;;6054350;23;20859;-75
2022/06/15 19:23:30;;;;;;;5.20;4.40;;;27.50;48.30;;;;;;6054914;23;20464;-78
2022/06/15 19:25:58;;;;;;;3.97;3.60;;;27.40;47.90;;;;;;6053464;23;20451;-75
2022/06/15 19:28:26;;;;;;;3.80;3.60;;;27.30;47.90;;;;;;6048170;23;20449;-75
2022/06/15 19:30:56;;;;;;;5.87;3.50;;;27.30;48.60;;;;;;6058660;23;21054;-75
2022/06/15 19:33:24;;;;;;;4.43;3.77;;;27.20;48.60;;;;;;6051521;23;20442;-75
2022/06/15 19:35:52;;;;;;;4.60;3.70;;;27.10;48.90;;;;;;6048377;23;20439;-75
2022/06/15 19:38:19;;;;;;;3.90;3.50;;;27.00;49.30;;;;;;6042092;23;20526;-85
2022/06/15 19:40:46;;;;;;;4.10;3.80;;;26.90;49.60;;;;;;6058498;23;20494;-86
2022/06/15 19:43:18;;;;;;;4.60;3.83;;;26.80;50.00;;;;;;6055988;23;20462;-83
2022/06/15 19:45:46;;;;;;;5.63;3.70;;;26.70;50.60;;;;;;6050484;23;20470;-79
2022/06/15 19:48:14;;;;;;;5.00;4.50;;;26.60;51.20;;;;;;6053136;23;20534;-78
2022/06/15 19:50:44;;;;;;;4.90;4.37;;;26.50;50.30;;;;;;6051884;23;20459;-78
2022/06/15 19:53:11;;;;;;;4.37;4.00;;;26.40;49.20;;;;;;6051022;23;20538;-79
2022/06/15 19:55:39;;;;;;;3.87;3.57;;;26.40;48.50;;;;;;6051870;23;20427;-78
2022/06/15 19:58:08;;;;;;;3.90;3.60;;;26.30;47.80;;;;;;6053045;23;20459;-79
2022/06/15 20:00:36;;;;;;;4.43;4.00;;;26.30;47.50;;;;;;6054371;23;20984;-78
2022/06/15 20:03:03;;;;;;;4.30;3.90;;;26.20;47.50;;;;;;6046736;23;20553;-78
2022/06/15 20:05:33;;;;;;;4.90;4.50;;;26.20;47.80;;;;;;6047343;23;20443;-78
2022/06/15 20:08:02;;;;;;;4.93;4.53;;;26.20;48.50;;;;;;6049506;23;20439;-78
2022/06/15 20:10:30;;;;;;;4.80;4.00;;;26.10;48.50;;;;;;6053364;23;20547;-78
2022/06/15 20:12:58;;;;;;;6.97;4.33;;;26.10;49.30;;;;;;6050212;23;20444;-78
2022/06/15 20:15:26;;;;;;;4.10;3.80;;;26.10;49.60;;;;;;6052352;23;20447;-78
2022/06/15 20:17:56;;;;;;;5.10;3.83;;;26.00;48.60;;;;;;6053668;23;20503;-78
2022/06/15 20:20:29;;;;;;;4.30;4.00;;;26.00;48.30;;;;;;6051560;23;20451;-78
2022/06/15 20:22:59;;;;;;;5.33;4.93;;;25.90;48.30;;;;;;6052103;23;20442;-78
2022/06/15 20:25:28;;;;;;;5.63;4.80;;;25.90;48.70;;;;;;6053175;23;20473;-78
2022/06/15 20:27:58;;;;;;;5.00;3.90;;;25.90;49.00;;;;;;6050568;23;20509;-78
2022/06/15 20:30:26;;;;;;;6.10;4.20;;;25.80;49.00;;;;;;6054614;23;20821;-79
2022/06/15 20:32:54;;;;;;;5.33;4.50;;;25.80;50.30;;;;;;6058700;23;20435;-81
2022/06/15 20:35:21;;;;;;;4.30;3.90;;;25.70;50.50;;;;;;6057104;23;20439;-81
2022/06/15 20:37:53;;;;;;;4.00;3.70;;;25.60;50.40;;;;;;6043938;23;20482;-82
2022/06/15 20:40:21;;;;;;;5.20;3.90;;;25.60;49.80;;;;;;6056632;23;20468;-82
2022/06/15 20:42:49;;;;;;;6.77;4.10;;;25.50;50.00;;;;;;6058890;23;20435;-82
2022/06/15 20:45:20;;;;;;;5.30;3.60;;;25.50;50.10;;;;;;6054025;23;20436;-81
2022/06/15 20:47:48;;;;;;;4.17;3.87;;;25.50;49.70;;;;;;6052638;23;20896;-81
2022/06/15 20:50:19;;;;;;;3.90;3.53;;;25.60;50.10;;;;;;6051918;23;20455;-82
2022/06/15 20:52:47;;;;;;;4.10;3.80;;;25.50;49.80;;;;;;6056310;23;21053;-82
2022/06/15 20:55:14;;;;;;;5.00;4.60;;;25.50;49.50;;;;;;6041419;23;20966;-82
2022/06/15 20:57:41;;;;;;;4.13;3.83;;;25.50;49.80;;;;;;6050686;23;20459;-82
2022/06/15 21:00:11;;;;;;;4.20;3.80;;;25.40;50.20;;;;;;6046603;23;20993;-82
2022/06/15 21:02:38;;;;;;;4.80;4.40;;;25.40;50.60;;;;;;6053003;23;20515;-82
2022/06/15 21:05:06;;;;;;;4.97;4.57;;;25.30;51.10;;;;;;6058732;23;20440;-82
2022/06/15 21:07:34;;;;;;;3.90;3.60;;;25.30;50.60;;;;;;6054262;23;20442;-82
2022/06/15 21:18:17;;;;;;;3.37;3.07;;;25.30;48.30;;;;;;6055343;23;20483;-82
2022/06/15 21:20:44;;;;;;;3.30;3.10;;;25.30;49.10;;;;;;6049391;23;20443;-81
2022/06/15 21:23:12;;;;;;;3.67;3.40;;;25.30;49.20;;;;;;6052472;23;20458;-81
2022/06/15 21:25:39;;;;;;;5.37;3.30;;;25.30;49.40;;;;;;6056338;23;20501;-81
2022/06/15 21:28:09;;;;;;;3.70;3.40;;;25.20;49.20;;;;;;6042304;23;20846;-81
2022/06/15 21:30:39;;;;;;;6.60;4.60;;;25.20;49.20;;;;;;6055261;23;20455;-81
2022/06/15 21:33:07;;;;;;;5.50;4.60;;;25.10;50.90;;;;;;6041757;23;21362;-85
2022/06/15 21:35:35;;;;;;;4.37;4.07;;;24.90;52.20;;;;;;6053317;23;20442;-81
2022/06/15 21:38:02;;;;;;;4.77;4.37;;;24.60;52.10;;;;;;6061522;23;20599;-81
2022/06/15 21:40:30;;;;;;;5.30;4.80;;;24.40;52.10;;;;;;6055021;23;20531;-80
2022/06/15 21:43:01;;;;;;;4.33;3.93;;;24.30;53.10;;;;;;6058448;23;20507;-84
2022/06/15 21:45:30;;;;;;;4.63;4.20;;;24.20;52.50;;;;;;6064928;23;21022;-83
2022/06/15 21:48:01;;;;;;;6.33;5.63;;;24.00;52.90;;;;;;6059828;23;20544;-83
2022/06/15 21:50:31;;;;;;;5.10;4.70;;;23.90;54.00;;;;;;6056535;23;20455;-82
2022/06/15 21:52:59;;;;;;;5.03;4.63;;;23.80;54.20;;;;;;6064208;23;20787;-83
2022/06/15 21:55:26;;;;;;;5.83;5.00;;;23.80;55.40;;;;;;6063841;23;20437;-83
2022/06/15 21:57:54;;;;;;;6.00;5.53;;;23.70;55.60;;;;;;6065323;23;20485;-83
2022/06/15 22:00:23;;;;;;;6.87;6.27;;;23.60;56.20;;;;;;6055138;23;20462;-83
2022/06/15 22:02:51;;;;;;;6.67;6.07;;;23.50;56.80;;;;;;6056762;23;20941;-83
2022/06/15 22:05:21;;;;;;;8.20;6.37;;;23.40;57.20;;;;;;6044681;23;20956;-83
2022/06/15 22:07:49;;;;;;;6.70;6.10;;;23.30;57.40;;;;;;6053941;23;20439;-82
2022/06/15 22:10:18;;;;;;;6.47;5.97;;;23.30;57.80;;;;;;6052749;23;20477;-82
2022/06/15 22:12:45;;;;;;;6.07;5.57;;;23.20;57.90;;;;;;6052738;23;20469;-82
2022/06/15 22:15:13;;;;;;;7.70;6.20;;;23.20;58.40;;;;;;6045359;23;20444;-83
2022/06/15 22:17:41;;;;;;;5.17;4.73;;;23.20;58.70;;;;;;6055340;23;20616;-83
2022/06/15 22:20:11;;;;;;;5.53;5.13;;;23.10;58.40;;;;;;6050511;23;20471;-83
2022/06/15 22:22:40;;;;;;;6.63;6.07;;;23.00;58.30;;;;;;6046428;23;20924;-83
2022/06/15 22:25:10;;;;;;;5.60;5.10;;;23.00;58.50;;;;;;6055630;23;20435;-83
2022/06/15 22:27:38;;;;;;;6.27;5.77;;;23.00;58.40;;;;;;6045052;23;21011;-83
2022/06/15 22:30:07;;;;;;;5.40;5.00;;;23.00;59.10;;;;;;6062106;23;20470;-82
2022/06/15 22:32:35;;;;;;;6.00;5.40;;;22.90;58.20;;;;;;6061483;23;20951;-82
2022/06/15 22:35:06;;;;;;;4.80;4.40;;;22.90;60.00;;;;;;6055529;23;20486;-83
2022/06/15 22:37:33;;;;;;;5.03;4.63;;;22.90;58.50;;;;;;6055617;23;20440;-83
2022/06/15 22:40:01;;;;;;;5.77;5.27;;;22.80;58.30;;;;;;6045179;23;20470;-83
2022/06/15 22:42:28;;;;;;;6.90;6.30;;;22.60;62.60;;;;;;6077315;23;20438;-83
2022/06/15 22:44:55;;;;;;;6.03;5.43;;;22.40;64.00;;;;;;6066654;23;20542;-83
2022/06/15 22:47:23;;;;;;;6.30;5.80;;;22.00;65.10;;;;;;6046389;23;20482;-83
2022/06/15 22:52:34;;;;;;;5.80;5.40;;;21.50;66.90;;;;;;6057566;23;20451;-83
2022/06/15 22:55:03;;;;;;;6.53;5.63;;;21.30;66.70;;;;;;6056920;23;20445;-83
2022/06/15 22:57:30;;;;;;;5.90;5.50;;;21.20;67.20;;;;;;6051640;23;20529;-83